地図

経路データ

SID SEASON NUMBER BASIN SUBBASIN NAME ISO_TIME NATURE LAT LON WMO_WIND WMO_PRES WMO_AGENCY TRACK_TYPE DIST2LAND LANDFALL IFLAG USA_AGENCY USA_ATCF_ID USA_LAT USA_LON USA_RECORD USA_STATUS USA_WIND USA_PRES USA_SSHS USA_R34_NE USA_R34_SE USA_R34_SW USA_R34_NW USA_R50_NE USA_R50_SE USA_R50_SW USA_R50_NW USA_R64_NE USA_R64_SE USA_R64_SW USA_R64_NW USA_POCI USA_ROCI USA_RMW USA_EYE TOKYO_LAT TOKYO_LON TOKYO_GRADE TOKYO_WIND TOKYO_PRES TOKYO_R50_DIR TOKYO_R50_LONG TOKYO_R50_SHORT TOKYO_R30_DIR TOKYO_R30_LONG TOKYO_R30_SHORT TOKYO_LAND CMA_LAT CMA_LON CMA_CAT CMA_WIND CMA_PRES HKO_LAT HKO_LON HKO_CAT HKO_WIND HKO_PRES NEWDELHI_LAT NEWDELHI_LON NEWDELHI_GRADE NEWDELHI_WIND NEWDELHI_PRES NEWDELHI_CI NEWDELHI_DP NEWDELHI_POCI REUNION_LAT REUNION_LON REUNION_TYPE REUNION_WIND REUNION_PRES REUNION_TNUM REUNION_CI REUNION_RMW REUNION_R34_NE REUNION_R34_SE REUNION_R34_SW REUNION_R34_NW REUNION_R50_NE REUNION_R50_SE REUNION_R50_SW REUNION_R50_NW REUNION_R64_NE REUNION_R64_SE REUNION_R64_SW REUNION_R64_NW BOM_LAT BOM_LON BOM_TYPE BOM_WIND BOM_PRES BOM_TNUM BOM_CI BOM_RMW BOM_R34_NE BOM_R34_SE BOM_R34_SW BOM_R34_NW BOM_R50_NE BOM_R50_SE BOM_R50_SW BOM_R50_NW BOM_R64_NE BOM_R64_SE BOM_R64_SW BOM_R64_NW BOM_ROCI BOM_POCI BOM_EYE BOM_POS_METHOD BOM_PRES_METHOD NADI_LAT NADI_LON NADI_CAT NADI_WIND NADI_PRES WELLINGTON_LAT WELLINGTON_LON WELLINGTON_WIND WELLINGTON_PRES DS824_LAT DS824_LON DS824_STAGE DS824_WIND DS824_PRES TD9636_LAT TD9636_LON TD9636_STAGE TD9636_WIND TD9636_PRES TD9635_LAT TD9635_LON TD9635_WIND TD9635_PRES TD9635_ROCI NEUMANN_LAT NEUMANN_LON NEUMANN_CLASS NEUMANN_WIND NEUMANN_PRES MLC_LAT MLC_LON MLC_CLASS MLC_WIND MLC_PRES USA_GUST BOM_GUST BOM_GUST_PER REUNION_GUST REUNION_GUST_PER USA_SEAHGT USA_SEARAD_NE USA_SEARAD_SE USA_SEARAD_SW USA_SEARAD_NW STORM_SPEED STORM_DIR
1987219N08155 1987 53 WP MM CARY 1987-08-07 00:00:00 NR 7.60000 154.900 main 1236 1228 O_________O___ jtwc_wp WP101987 7.60000 154.900 15 -1 7.60000 154.900 1 15 8 284
1987219N08155 1987 53 WP MM CARY 1987-08-07 03:00:00 NR 7.70411 154.488 main 1232 1225 P_________P___ WP101987 7.70004 154.513 15 -1 7.70819 154.463 1 15 9 284
1987219N08155 1987 53 WP MM CARY 1987-08-07 06:00:00 NR 7.80646 154.065 main 1229 1222 O_________P___ jtwc_wp WP101987 7.80000 154.100 15 -1 7.81292 154.030 1 15 9 283
1987219N08155 1987 53 WP MM CARY 1987-08-07 09:00:00 NR 7.90559 153.629 main 1225 1219 P_________P___ WP101987 7.90000 153.650 15 -1 7.91118 153.608 1 15 9 283
1987219N08155 1987 53 WP MM CARY 1987-08-07 12:00:00 NR 8.00000 153.200 main 1225 1221 O_________O___ jtwc_wp WP101987 8.00000 153.200 15 -1 8.00000 153.200 1 15 8 283
1987219N08155 1987 53 WP MM CARY 1987-08-07 15:00:00 NR 8.09567 152.798 main 1228 1223 P_________P___ WP101987 8.11496 152.785 15 -1 8.07639 152.811 1 15 8 282
1987219N08155 1987 53 WP MM CARY 1987-08-07 18:00:00 NR 8.16864 152.417 main 1232 1228 O_________P___ jtwc_wp WP101987 8.20000 152.400 15 -1 8.13727 152.435 1 15 7 278
1987219N08155 1987 53 WP MM CARY 1987-08-07 21:00:00 NR 8.20098 152.058 main 1228 1224 P_________P___ WP101987 8.22243 152.050 15 -1 8.17953 152.067 1 15 7 273
1987219N08155 1987 53 WP MM CARY 1987-08-08 00:00:00 NR 8.20000 151.700 main 1224 1222 O_________O___ jtwc_wp WP101987 8.20000 151.700 15 -1 8.20000 151.700 1 15 7 268
1987219N08155 1987 53 WP MM CARY 1987-08-08 03:00:00 NR 8.17323 151.312 main 1222 1207 P_________P___ WP101987 8.15000 151.300 17 -1 8.19646 151.325 1 16 8 265
1987219N08155 1987 53 WP MM CARY 1987-08-08 06:00:00 NR 8.13618 150.925 main 1207 1196 O_________P___ jtwc_wp WP101987 8.10000 150.900 20 -1 8.17236 150.950 1 17 7 266
1987219N08155 1987 53 WP MM CARY 1987-08-08 09:00:00 NR 8.11852 150.559 main 1196 1184 P_________P___ WP101987 8.09995 150.543 20 -1 8.13708 150.575 1 18 7 267
1987219N08155 1987 53 WP MM CARY 1987-08-08 12:00:00 NR 8.10000 150.200 main 1184 1176 O_________O___ jtwc_wp WP101987 8.10000 150.200 20 -1 8.10000 150.200 1 20 7 265
1987219N08155 1987 53 WP MM CARY 1987-08-08 15:00:00 NR 8.05632 149.843 main 1173 1155 P_________P___ WP101987 8.04995 149.857 20 -1 8.06269 149.829 1 20 7 263
1987219N08155 1987 53 WP MM CARY 1987-08-08 18:00:00 NR 8.01366 149.479 main 1155 1147 O_________P___ jtwc_wp WP101987 8.00000 149.500 20 -1 8.02732 149.457 1 20 7 265
1987219N08155 1987 53 WP MM CARY 1987-08-08 21:00:00 NR 7.99414 149.095 main 1147 1140 P_________P___ WP101987 7.98498 149.107 20 -1 8.00330 149.082 1 20 8 269
1987219N08155 1987 53 WP MM CARY 1987-08-09 00:00:00 NR 8.00000 148.700 main 1140 1136 O_________O___ jtwc_wp WP101987 8.00000 148.700 20 -1 8.00000 148.700 1 20 8 273
1987219N08155 1987 53 WP MM CARY 1987-08-09 03:00:00 NR 8.03539 148.306 main 1136 1135 P_________P___ WP101987 8.04246 148.300 20 -1 8.02833 148.311 1 20 8 276
1987219N08155 1987 53 WP MM CARY 1987-08-09 06:00:00 NR 8.08867 147.908 main 1144 1143 O_________P___ jtwc_wp WP101987 8.10000 147.900 20 -1 8.07734 147.915 1 20 8 278
1987219N08155 1987 53 WP MM CARY 1987-08-09 09:00:00 NR 8.14382 147.506 main 1143 1143 P_________P___ WP101987 8.14996 147.500 20 -1 8.13769 147.511 1 20 8 278
1987219N08155 1987 53 WP MM CARY 1987-08-09 12:00:00 NR 8.20000 147.100 main 1154 1154 O_________O___ jtwc_wp WP101987 8.20000 147.100 20 -1 8.20000 147.100 1 20 8 278
1987219N08155 1987 53 WP MM CARY 1987-08-09 15:00:00 NR 8.24990 146.697 main 1154 1154 P_________P___ WP101987 8.24994 146.707 20 -1 8.24987 146.686 1 20 8 277
1987219N08155 1987 53 WP MM CARY 1987-08-09 18:00:00 NR 8.29991 146.282 main 1165 1165 O_________P___ jtwc_wp WP101987 8.30000 146.300 20 -1 8.29982 146.265 1 20 8 277
1987219N08155 1987 53 WP MM CARY 1987-08-09 21:00:00 NR 8.34991 145.847 main 1168 1168 P_________P___ WP101987 8.34997 145.857 20 -1 8.34985 145.836 1 20 9 277
1987219N08155 1987 53 WP MM CARY 1987-08-10 00:00:00 NR 8.40000 145.400 main 1184 1184 O_________O___ jtwc_wp WP101987 8.40000 145.400 20 -1 8.40000 145.400 1 20 9 277
1987219N08155 1987 53 WP MM CARY 1987-08-10 03:00:00 NR 8.44985 144.962 main 1189 1189 P_________P___ WP101987 8.44995 144.950 20 -1 8.44975 144.973 1 20 9 277
1987219N08155 1987 53 WP MM CARY 1987-08-10 06:00:00 NR 8.49981 144.519 main 1210 1210 O_________P___ jtwc_wp WP101987 8.50000 144.500 20 -1 8.49962 144.537 1 20 9 276
1987219N08155 1987 53 WP MM CARY 1987-08-10 09:00:00 NR 8.54979 144.074 main 1219 1219 P_________P___ WP101987 8.54989 144.065 20 -1 8.54970 144.083 1 20 9 276
1987219N08155 1987 53 WP MM CARY 1987-08-10 12:00:00 NR 8.60000 143.600 main 1244 1244 O_________O___ jtwc_wp WP101987 8.60000 143.600 20 -1 8.60000 143.600 1 20 10 275
1987219N08155 1987 53 WP MM CARY 1987-08-10 15:00:00 NR 8.63981 143.072 main 1260 1248 P_________P___ WP101987 8.64998 143.065 20 -1 8.62964 143.078 1 20 11 274
1987219N08155 1987 53 WP MM CARY 1987-08-10 18:00:00 NR 8.68121 142.515 main 1248 1228 O_________P___ jtwc_wp WP101987 8.70000 142.500 20 -1 8.66243 142.530 1 20 11 275
1987219N08155 1987 53 WP MM CARY 1987-08-10 21:00:00 NR 8.72820 141.958 main 1228 1218 P_________P___ WP101987 8.74242 141.950 20 -1 8.71398 141.966 1 20 11 276
1987219N08155 1987 53 WP MM CARY 1987-08-11 00:00:00 NR 8.80000 141.400 main 1218 1208 O_________O___ jtwc_wp WP101987 8.80000 141.400 20 -1 8.80000 141.400 1 20 11 279
1987219N08155 1987 53 WP MM CARY 1987-08-11 03:00:00 NR 8.89625 140.850 main 1211 1201 P_________P___ WP101987 8.86992 140.850 20 -1 8.92258 140.850 1 20 11 283
1987219N08155 1987 53 WP MM CARY 1987-08-11 06:00:00 NR 9.04109 140.300 main 1201 1198 O_________P___ jtwc_wp WP101987 9.00000 140.300 20 -1 9.08218 140.300 1 20 11 288
1987219N08155 1987 53 WP MM CARY 1987-08-11 09:00:00 NR 9.25157 139.746 main 1207 1200 P_________P___ WP101987 9.22745 139.743 20 -1 9.27570 139.750 1 20 12 293
1987219N08155 1987 53 WP MM CARY 1987-08-11 12:00:00 NR 9.50000 139.200 main 1210 1206 O_________O___ jtwc_wp WP101987 9.50000 139.200 20 -1 9.50000 139.200 1 20 12 295
1987219N08155 1987 53 WP MM CARY 1987-08-11 15:00:00 NR 9.74018 138.671 main 1214 1214 P_________P___ WP101987 9.74232 138.707 20 -1 9.73804 138.634 1 20 12 296
1987219N08155 1987 53 WP MM CARY 1987-08-11 18:00:00 NR 10.0025 138.135 main 1230 1228 O_________P___ jtwc_wp WP101987 10.0000 138.200 20 -1 10.0049 138.070 1 20 12 297
1987219N08155 1987 53 WP MM CARY 1987-08-11 21:00:00 NR 10.2897 137.564 main 1243 1187 P_________P___ WP101987 10.2850 137.607 20 -1 10.2943 137.521 1 20 13 298
1987219N08155 1987 53 WP MM CARY 1987-08-12 00:00:00 NR 10.6000 137.000 main 1187 1142 O_________O___ jtwc_wp WP101987 10.6000 137.000 20 -1 10.6000 137.000 1 20 13 300
1987219N08155 1987 53 WP MM CARY 1987-08-12 03:00:00 NR 10.9221 136.455 main 1142 1117 P_________P___ WP101987 10.9500 136.413 22 -1 10.8942 136.497 1 22 11 311
1987219N08155 1987 53 WP MM CARY 1987-08-12 06:00:00 TS 11.3355 136.133 1008 tokyo main 1109 1084 OO________P___ jtwc_wp WP101987 11.3000 135.900 25 -1 12.0000 137.500 2 1008 0 0 0 11.2048 136.025 1 25 10 319
1987219N08155 1987 53 WP MM CARY 1987-08-12 09:00:00 TS 11.6953 135.776 main 1087 1052 PP________P___ WP101987 11.5849 135.505 27 -1 12.2307 136.690 2 1008 0 0 11.5380 135.590 1 27 10 316
1987219N08155 1987 53 WP MM CARY 1987-08-12 12:00:00 TS 12.0636 135.418 1008 tokyo main 1053 1025 OO________O___ jtwc_wp WP101987 11.9000 135.200 30 -1 12.5000 136.000 2 1008 0 0 0 11.9000 135.200 1 30 10 321
1987219N08155 1987 53 WP MM CARY 1987-08-12 15:00:00 TS 12.4938 135.112 main 1026 1011 PP________P___ WP101987 12.3349 134.950 32 -1 12.8346 135.505 2 1006 0 0 12.3119 134.881 1 32 10 327
1987219N08155 1987 53 WP MM CARY 1987-08-12 18:00:00 TS 12.8855 134.871 1004 tokyo main 1013 988 OOOO______P___ jtwc_wp WP101987 12.8000 134.700 35 0 13.2000 135.100 2 1004 0 0 0 13.5000 135.300 1 29 1004 11.9000 135.300 TD 30 1000 12.7492 134.599 1 35 10 326
1987219N08155 1987 53 WP MM CARY 1987-08-12 21:00:00 TS 13.2907 134.558 main 991 956 PPPP______P___ WP101987 13.2149 134.380 37 0 13.5650 134.643 2 1003 0 0 13.5597 134.870 1 33 1002 12.8324 134.910 TD 32 999 13.1869 134.318 1 37 11 319
1987219N08155 1987 53 WP MM CARY 1987-08-13 00:00:00 TS 13.6833 134.161 1002 tokyo main 958 911 OOOO______O___ jtwc_wp WP101987 13.6000 134.000 40 0 13.9000 134.200 2 1002 0 0 0 13.7000 134.300 2 38 1000 13.6000 134.400 TS 35 998 13.6000 134.000 2 40 12 310
1987219N08155 1987 53 WP MM CARY 1987-08-13 03:00:00 TS 14.0346 133.642 main 900 855 PPPP______P___ WP101987 13.9650 133.565 42 0 14.1648 133.815 2 1001 0 0 13.9705 133.528 2 43 998 14.0903 133.707 TS 35 998 13.9822 133.593 2 42 12 303
1987219N08155 1987 53 WP MM CARY 1987-08-13 06:00:00 TS 14.3465 133.089 1000 tokyo main 855 813 OOOO______P___ jtwc_wp WP101987 14.3000 133.100 45 0 14.4000 133.400 2 1000 0 0 0 14.3000 132.800 3 48 996 14.4000 133.000 TS 35 998 14.3326 133.145 2 45 12 301
1987219N08155 1987 53 WP MM CARY 1987-08-13 09:00:00 TS 14.6401 132.613 main 813 785 PPPP______P___ WP101987 14.6224 132.650 47 0 14.6499 132.887 2 1001 0 0 14.6145 132.397 3 48 994 14.6723 132.455 TS 37 997 14.6416 132.675 2 47 11 302
1987219N08155 1987 53 WP MM CARY 1987-08-13 12:00:00 TS 14.9000 132.160 1002 tokyo main 785 744 OOOO______O___ jtwc_wp WP101987 14.9000 132.200 50 0 14.9000 132.300 2 1002 0 0 0 14.9000 132.100 3 48 992 14.9000 132.000 TS 40 996 14.9000 132.200 2 50 10 299
1987219N08155 1987 53 WP MM CARY 1987-08-13 15:00:00 TS 15.1358 131.685 main 744 706 PPPP______P___ WP101987 15.1299 131.750 52 0 15.1653 131.613 2 1002 0 0 15.1223 131.730 3 48 991 15.1573 131.592 TS 42 995 15.1042 131.741 2 51 10 295
1987219N08155 1987 53 WP MM CARY 1987-08-13 18:00:00 TS 15.3320 131.217 1002 tokyo main 706 681 OOOO______P___ jtwc_wp WP101987 15.3000 131.300 55 0 15.4000 131.000 2 1002 0 0 0 15.3000 131.300 3 48 990 15.4000 131.200 TS 45 994 15.2598 131.284 2 52 10 292
1987219N08155 1987 53 WP MM CARY 1987-08-13 21:00:00 TS 15.4876 130.763 main 681 651 PPPP______P___ WP101987 15.4075 130.842 55 0 15.5647 130.647 2 1002 0 0 15.4652 130.743 3 48 990 15.6150 130.750 TS 45 994 15.3855 130.835 2 53 9 289
1987219N08155 1987 53 WP MM CARY 1987-08-14 00:00:00 TS 15.6200 130.340 1002 tokyo main 643 624 OOOO______O___ jtwc_wp WP101987 15.5000 130.400 55 0 15.7000 130.400 2 1002 0 0 0 15.6000 130.200 3 48 990 15.8000 130.300 TS 45 994 15.5000 130.400 2 55 8 290
1987219N08155 1987 53 WP MM CARY 1987-08-14 03:00:00 TS 15.7632 129.964 main 631 602 PPPP______P___ WP101987 15.6499 129.993 55 0 15.8498 130.137 2 1002 0 0 15.6997 129.835 3 53 987 15.9724 129.892 TS 47 993 15.6443 129.961 2 56 8 291
1987219N08155 1987 53 WP MM CARY 1987-08-14 06:00:00 TS 15.8960 129.588 1002 tokyo main 602 566 OOOO______P___ jtwc_wp WP101987 15.8000 129.600 55 0 16.0000 129.800 2 1002 0 0 0 15.8000 129.500 3 58 985 16.1000 129.500 STS 50 992 15.7800 129.540 2 57 8 289
1987219N08155 1987 53 WP MM CARY 1987-08-14 09:00:00 TS 16.0282 129.147 main 557 523 PPPP______P___ WP101987 15.9150 129.177 57 0 16.1727 129.280 2 1001 0 0 15.9726 129.050 3 58 985 16.1800 129.077 STS 50 992 15.9006 129.149 2 58 9 285
1987219N08155 1987 53 WP MM CARY 1987-08-14 12:00:00 TS 16.1200 128.720 40 1000 tokyo main 523 495 OOOO______O___ jtwc_wp WP101987 16.0000 128.800 60 0 16.3000 128.700 3 40 1000 0 9 125 125 0 16.1000 128.600 3 58 985 16.2000 128.700 STS 50 992 16.0000 128.800 2 60 8 278
1987219N08155 1987 53 WP MM CARY 1987-08-14 15:00:00 TS 16.1369 128.361 main 495 467 PPPP______P___ WP101987 16.0574 128.527 60 0 16.3301 128.125 3 40 999 0 9 125 125 16.0650 128.212 3 58 985 16.1649 128.427 STS 52 991 16.0670 128.515 2 61 6 270
1987219N08155 1987 53 WP MM CARY 1987-08-14 18:00:00 TS 16.1229 128.074 40 998 tokyo main 467 449 OOOO______P___ jtwc_wp WP101987 16.1000 128.300 60 0 16.3000 127.700 3 40 998 0 9 125 125 0 16.0000 127.900 3 58 985 16.1000 128.200 STS 55 990 16.1144 128.270 2 62 5 268
1987219N08155 1987 53 WP MM CARY 1987-08-14 21:00:00 TS 16.1188 127.866 main 449 431 PPPP______P___ WP101987 16.1499 128.057 62 0 16.2423 127.598 3 42 996 0 9 137 137 16.0274 127.678 3 58 985 16.0199 127.957 STS 55 990 16.1546 128.040 2 63 4 273
1987219N08155 1987 53 WP MM CARY 1987-08-15 00:00:00 TS 16.1400 127.680 45 994 tokyo main 431 420 OOOO______O___ jtwc_wp WP101987 16.2000 127.800 65 1 16.2000 127.600 3 45 994 0 9 150 150 0 16.1000 127.500 3 58 985 16.0000 127.700 STS 55 990 16.2000 127.800 3 65 4 283
1987219N08155 1987 53 WP MM CARY 1987-08-15 03:00:00 TS 16.2122 127.445 main 412 403 PPPP______P___ WP101987 16.2425 127.507 65 1 16.2349 127.502 3 47 993 0 9 150 150 16.1925 127.307 3 58 985 16.1275 127.408 STS 55 990 16.2638 127.502 3 65 5 289
1987219N08155 1987 53 WP MM CARY 1987-08-15 06:00:00 TS 16.3070 127.179 50 992 tokyo main 403 387 OOOO______P___ jtwc_wp WP101987 16.3000 127.200 65 1 16.3000 127.300 4 50 992 0 9 150 150 0 16.3000 127.100 3 58 985 16.3000 127.100 STS 55 990 16.3351 127.193 3 65 6 288
1987219N08155 1987 53 WP MM CARY 1987-08-15 09:00:00 TS 16.3973 126.861 main 387 372 PPPP______P___ WP101987 16.3925 126.893 65 1 16.3503 126.900 4 50 991 0 9 150 150 16.4150 126.850 3 58 985 16.4150 126.777 STS 55 990 16.4138 126.887 3 65 6 286
1987219N08155 1987 53 WP MM CARY 1987-08-15 12:00:00 TS 16.4800 126.560 50 990 tokyo main 373 359 OOOO______O___ jtwc_wp WP101987 16.5000 126.600 65 1 16.4000 126.500 4 50 990 0 9 150 150 0 16.5000 126.600 3 58 985 16.5000 126.500 STS 55 990 16.5000 126.600 4 65 5 287
1987219N08155 1987 53 WP MM CARY 1987-08-15 15:00:00 TS 16.5462 126.340 main 352 352 PPPP______P___ WP101987 16.6000 126.335 67 1 16.4574 126.305 4 52 987 0 9 150 150 16.5075 126.385 3 58 982 16.5574 126.320 STS 57 987 16.6088 126.358 4 65 4 288
1987219N08155 1987 53 WP MM CARY 1987-08-15 18:00:00 TS 16.6044 126.167 55 985 tokyo main 355 349 OOOO______P___ jtwc_wp WP101987 16.7000 126.100 70 1 16.5000 126.200 4 55 985 9 30 30 9 150 150 0 16.5000 126.200 3 58 980 16.6000 126.200 STS 60 985 16.7222 126.135 4 65 3 291
1987219N08155 1987 53 WP MM CARY 1987-08-15 21:00:00 TS 16.6618 126.024 main 352 347 PPPP______P___ WP101987 16.8074 125.900 67 1 16.4924 126.122 4 57 982 9 40 40 9 150 150 16.5424 126.057 3 58 980 16.6424 126.122 STS 60 985 16.8245 125.920 4 65 3 291
1987219N08155 1987 53 WP MM CARY 1987-08-16 00:00:00 TS 16.7200 125.860 60 980 tokyo main 347 330 OOOO______O___ jtwc_wp WP101987 16.9000 125.700 65 1 16.5000 126.000 4 60 980 9 50 50 9 150 150 0 16.6000 125.900 3 58 980 16.7000 126.000 STS 60 985 16.9000 125.700 4 65 4 288
1987219N08155 1987 53 WP MM CARY 1987-08-16 03:00:00 TS 16.7890 125.612 main 330 298 PPPP______P___ WP101987 16.9725 125.458 65 1 16.5775 125.738 4 60 980 9 50 50 9 150 150 16.6500 125.680 3 58 980 16.8001 125.730 STS 60 985 16.9450 125.453 4 66 5 284
1987219N08155 1987 53 WP MM CARY 1987-08-16 06:00:00 TS 16.8520 125.320 60 980 tokyo main 297 266 OOOO______P___ jtwc_wp WP101987 17.0000 125.200 65 1 16.7000 125.400 4 60 980 9 50 50 9 150 150 0 16.7000 125.400 3 58 980 16.9000 125.400 STS 60 985 16.9600 125.200 4 67 6 281
1987219N08155 1987 53 WP MM CARY 1987-08-16 09:00:00 TS 16.9025 125.018 main 266 234 PPPP______P___ WP101987 16.9650 124.950 67 1 16.8725 125.043 4 62 977 9 50 50 9 150 150 16.7651 125.050 3 63 977 16.9650 125.100 STS 60 985 16.9450 124.947 4 68 6 277
1987219N08155 1987 53 WP MM CARY 1987-08-16 12:00:00 TS 16.9200 124.720 65 975 tokyo main 234 212 OOOO______O___ jtwc_wp WP101987 16.9000 124.700 70 1 17.0000 124.700 5 65 975 9 50 50 9 150 150 0 16.8000 124.700 4 68 975 17.0000 124.800 STS 60 985 16.9000 124.700 4 70 5 270
1987219N08155 1987 53 WP MM CARY 1987-08-16 15:00:00 TS 16.9064 124.449 main 202 181 PPPP______P___ WP101987 16.8650 124.443 72 1 17.0099 124.427 5 67 972 9 50 50 9 150 150 16.7799 124.427 4 68 975 17.0525 124.485 STS 62 982 16.8246 124.464 4 72 5 259
1987219N08155 1987 53 WP MM CARY 1987-08-16 18:00:00 TS 16.8245 124.207 70 970 tokyo main 181 161 OOOO______P___ jtwc_wp WP101987 16.8000 124.200 75 1 16.9000 124.200 5 70 970 9 50 50 9 150 150 0 16.7000 124.200 4 68 975 17.0000 124.200 T 65 980 16.7224 124.235 4 75 5 238
1987219N08155 1987 53 WP MM CARY 1987-08-16 21:00:00 TS 16.6333 123.988 main 163 145 PPPP______P___ WP101987 16.6500 123.985 77 1 16.6500 123.977 5 70 967 9 50 50 9 150 150 16.5500 123.985 4 68 972 16.7075 123.977 T 67 977 16.6090 124.014 4 77 5 225
1987219N08155 1987 53 WP MM CARY 1987-08-17 00:00:00 TS 16.4400 123.800 70 965 tokyo main 149 139 OOOO______O___ jtwc_wp WP101987 16.5000 123.800 80 1 16.4000 123.800 5 70 965 9 50 50 9 150 150 0 16.4000 123.800 4 68 970 16.4000 123.800 T 70 975 16.5000 123.800 4 80 4 229
1987219N08155 1987 53 WP MM CARY 1987-08-17 03:00:00 TS 16.3617 123.656 main 139 125 PPPP______P___ WP101987 16.4424 123.658 82 1 16.3124 123.708 5 70 965 9 50 50 9 150 150 16.3275 123.650 4 72 967 16.3124 123.658 T 72 970 16.4135 123.609 4 80 3 248
1987219N08155 1987 53 WP MM CARY 1987-08-17 06:00:00 TS 16.3269 123.505 70 965 tokyo main 125 108 OOOO______P___ jtwc_wp WP101987 16.4000 123.500 85 2 16.3000 123.600 5 70 965 9 50 50 9 150 150 0 16.3000 123.500 4 77 965 16.3000 123.500 T 75 965 16.3347 123.423 4 80 4 257
1987219N08155 1987 53 WP MM CARY 1987-08-17 09:00:00 TS 16.2797 123.293 main 108 91 PPPP______P___ WP101987 16.3000 123.265 82 1 16.3000 123.388 5 72 962 9 50 50 9 150 150 16.2999 123.323 4 77 965 16.2350 123.265 T 75 965 16.2635 123.225 4 80 5 259
1987219N08155 1987 53 WP MM CARY 1987-08-17 12:00:00 TS 16.2400 123.040 75 960 tokyo main 85 64 OOOO______O___ jtwc_wp WP101987 16.2000 123.000 80 1 16.3000 123.100 5 75 960 9 50 50 9 150 150 0 16.3000 123.100 4 77 965 16.2000 123.000 T 75 965 16.2000 123.000 4 80 5 263
1987219N08155 1987 53 WP MM CARY 1987-08-17 15:00:00 TS 16.2161 122.790 main 64 32 PPPP______P___ WP101987 16.1424 122.765 77 1 16.2648 122.795 5 72 962 9 50 50 9 150 150 16.2573 122.853 4 77 965 16.2573 122.788 T 75 965 16.1589 122.749 4 77 5 264
1987219N08155 1987 53 WP MM CARY 1987-08-17 18:00:00 TS 16.1844 122.474 70 965 tokyo main 32 0 OOOO______P___ jtwc_wp WP101987 16.1000 122.500 75 1 16.2000 122.400 5 70 965 9 50 50 9 150 150 0 16.2000 122.500 4 77 965 16.3000 122.500 T 75 965 16.1222 122.468 4 75 7 264
1987219N08155 1987 53 WP MM CARY 1987-08-17 21:00:00 TS 16.1360 122.043 main 10 0 PPPP______P___ WP101987 16.0649 122.180 72 1 16.1301 121.873 5 65 972 9 50 50 9 150 150 16.1727 121.973 4 72 967 16.2376 122.037 T 70 970 16.0744 122.153 4 72 9 261
1987219N08155 1987 53 WP MM CARY 1987-08-18 00:00:00 TS 16.0400 121.560 60 980 tokyo main 0 0 OOOO______O___ jtwc_wp WP101987 16.0000 121.800 70 1 16.0000 121.300 4 60 980 9 50 50 9 150 150 0 16.1000 121.400 4 68 970 16.1000 121.500 T 65 975 16.0000 121.800 4 70 9 253
1987219N08155 1987 53 WP MM CARY 1987-08-18 03:00:00 TS 15.8599 121.102 main 0 0 PPPP______P___ WP101987 15.8650 121.357 65 1 15.7499 120.785 4 57 982 9 50 50 9 150 150 15.9149 120.927 4 63 970 15.9073 121.007 T 62 977 15.8622 121.435 4 65 10 247
1987219N08155 1987 53 WP MM CARY 1987-08-18 06:00:00 TS 15.6599 120.646 55 985 tokyo main 0 0 OOOO______P___ jtwc_wp WP101987 15.7000 120.900 60 0 15.5000 120.300 4 55 985 9 50 50 9 150 150 0 15.7000 120.500 3 58 970 15.7000 120.500 STS 60 980 15.6995 121.032 4 60 9 248
1987219N08155 1987 53 WP MM CARY 1987-08-18 09:00:00 TS 15.5068 120.204 main 0 0 PPPP______P___ WP101987 15.5421 120.530 55 0 15.3699 119.843 4 55 985 9 50 50 9 150 150 15.5422 120.123 3 58 970 15.5426 119.935 STS 60 980 15.5370 120.588 4 55 9 252
1987219N08155 1987 53 WP MM CARY 1987-08-18 12:00:00 TS 15.3800 119.740 55 985 tokyo main 21 21 OOOO______O___ jtwc_wp WP101987 15.4000 120.100 50 0 15.3000 119.400 4 55 985 9 50 50 9 150 150 0 15.4000 119.700 3 58 970 15.4000 119.400 STS 60 980 15.4000 120.100 2 50 10 255
1987219N08155 1987 53 WP MM CARY 1987-08-18 15:00:00 TS 15.2492 119.209 main 78 78 PPPP______P___ WP101987 15.2778 119.465 52 0 15.2349 118.950 4 55 982 9 50 50 9 150 150 15.2202 119.107 3 63 970 15.2198 118.985 STS 60 980 15.2933 119.540 2 51 11 258
1987219N08155 1987 53 WP MM CARY 1987-08-18 18:00:00 TS 15.1637 118.668 55 980 tokyo main 130 130 OOOO______P___ jtwc_wp WP101987 15.2000 118.800 55 0 15.2000 118.500 4 55 980 9 50 50 9 150 150 0 15.1000 118.500 4 68 970 15.1000 118.600 STS 60 980 15.2183 118.942 2 52 10 265
1987219N08155 1987 53 WP MM CARY 1987-08-18 21:00:00 TS 15.1527 118.165 main 183 183 PPPP______P___ WP101987 15.1698 118.263 55 0 15.1849 118.050 4 57 977 9 62 62 9 175 175 15.1123 118.020 4 68 970 15.1125 118.143 STS 62 977 15.1840 118.349 2 53 9 272
1987219N08155 1987 53 WP MM CARY 1987-08-19 00:00:00 TS 15.2000 117.700 60 975 tokyo main 232 232 OOOO______O___ jtwc_wp WP101987 15.2000 117.800 55 0 15.2000 117.600 4 60 975 9 75 75 9 200 200 0 15.2000 117.600 4 68 970 15.2000 117.700 T 65 975 15.2000 117.800 2 55 9 278
1987219N08155 1987 53 WP MM CARY 1987-08-19 03:00:00 TS 15.2789 117.284 main 268 268 PPPP______P___ WP101987 15.2773 117.385 55 0 15.2350 117.142 4 62 972 9 75 75 9 200 200 15.2924 117.185 4 68 970 15.2998 117.343 T 70 970 15.2900 117.367 2 55 8 283
1987219N08155 1987 53 WP MM CARY 1987-08-19 06:00:00 TS 15.3852 116.896 65 970 tokyo main 307 307 OOOO______P___ jtwc_wp WP101987 15.4000 117.000 55 0 15.3000 116.700 5 65 970 9 75 75 9 200 200 0 15.4000 116.800 4 68 970 15.4000 117.000 T 75 965 15.4262 116.978 2 55 8 287
1987219N08155 1987 53 WP MM CARY 1987-08-19 09:00:00 TS 15.5007 116.522 main 347 347 PPPP______P___ WP101987 15.5573 116.623 55 0 15.3998 116.300 5 65 970 9 75 75 9 200 200 15.5148 116.465 4 68 970 15.4574 116.622 T 80 962 15.5744 116.601 2 55 8 286
1987219N08155 1987 53 WP MM CARY 1987-08-19 12:00:00 TS 15.6000 116.120 65 970 tokyo main 387 387 OOOO______O___ jtwc_wp WP101987 15.7000 116.200 55 0 15.5000 115.900 5 65 970 9 75 75 9 200 200 0 15.6000 116.100 4 68 970 15.5000 116.200 ST 85 960 15.7000 116.200 2 55 9 280
1987219N08155 1987 53 WP MM CARY 1987-08-19 15:00:00 TS 15.6484 115.627 main 441 440 PPPP______P___ WP101987 15.7726 115.657 55 0 15.5575 115.457 5 65 970 9 75 75 9 200 200 15.6076 115.607 4 68 970 15.5500 115.707 ST 82 962 15.7541 115.704 2 55 10 275
1987219N08155 1987 53 WP MM CARY 1987-08-19 18:00:00 TS 15.6761 115.117 65 970 tokyo main 493 493 OOOO______P___ jtwc_wp WP101987 15.8000 115.100 55 0 15.6000 115.000 5 65 970 9 75 75 9 200 200 0 15.6000 115.100 4 68 970 15.6000 115.200 T 80 965 15.7805 115.185 2 55 9 274
1987219N08155 1987 53 WP MM CARY 1987-08-19 21:00:00 TS 15.7083 114.644 main 546 524 PPPP______P___ WP101987 15.8074 114.627 55 0 15.6500 114.528 5 67 967 9 75 75 9 200 200 15.6424 114.670 4 68 970 15.6500 114.720 T 77 965 15.7916 114.673 2 55 9 274
1987219N08155 1987 53 WP MM CARY 1987-08-20 00:00:00 TS 15.7400 114.220 70 965 tokyo main 524 492 OOOO______O___ jtwc_wp WP101987 15.8000 114.200 55 0 15.7000 114.100 5 70 965 9 75 75 9 200 200 0 15.7000 114.300 4 68 970 15.7000 114.300 T 75 965 15.8000 114.200 2 55 8 275
1987219N08155 1987 53 WP MM CARY 1987-08-20 03:00:00 TS 15.7686 113.864 main 492 469 PPPP______P___ WP101987 15.7925 113.777 57 0 15.7424 113.770 5 70 965 9 75 75 9 200 200 15.7499 113.992 4 68 970 15.7498 113.985 T 75 965 15.8083 113.795 2 56 7 276
1987219N08155 1987 53 WP MM CARY 1987-08-20 06:00:00 TS 15.8039 113.546 70 965 tokyo main 462 431 OOOO______P___ jtwc_wp WP101987 15.8000 113.400 60 0 15.8000 113.500 5 70 965 9 75 75 9 200 200 0 15.8000 113.700 4 68 970 15.8000 113.700 T 75 965 15.8195 113.432 2 57 6 278
1987219N08155 1987 53 WP MM CARY 1987-08-20 09:00:00 TS 15.8547 113.222 main 431 410 PPPP______P___ WP101987 15.8274 113.077 60 0 15.8924 113.243 5 70 965 9 75 75 9 200 200 15.8500 113.342 4 68 970 15.8575 113.343 T 75 965 15.8459 113.104 2 58 6 281
1987219N08155 1987 53 WP MM CARY 1987-08-20 12:00:00 TS 15.9200 112.920 70 965 tokyo main 410 388 OOOO______O___ jtwc_wp WP101987 15.9000 112.800 60 0 16.0000 113.000 5 70 965 9 75 75 9 200 200 0 15.9000 113.000 4 68 970 15.9000 113.000 T 75 965 15.9000 112.800 2 60 6 284
1987219N08155 1987 53 WP MM CARY 1987-08-20 15:00:00 TS 15.9906 112.659 main 388 360 PPPP______P___ WP101987 16.0424 112.550 62 0 16.1075 112.750 5 70 965 9 62 62 9 200 200 15.9424 112.735 4 68 970 15.8849 112.742 T 75 965 15.9756 112.515 2 61 5 288
1987219N08155 1987 53 WP MM CARY 1987-08-20 18:00:00 TS 16.0764 112.410 70 965 tokyo main 360 338 OOOO______P___ jtwc_wp WP101987 16.2000 112.300 65 1 16.2000 112.500 5 70 965 9 50 50 9 200 200 0 16.0000 112.500 4 68 970 15.9000 112.500 T 75 965 16.0820 112.250 2 62 5 290
1987219N08155 1987 53 WP MM CARY 1987-08-20 21:00:00 TS 16.1694 112.149 main 332 309 PPPP______P___ WP101987 16.2925 112.007 65 1 16.2424 112.265 5 70 965 9 75 50 9 250 200 16.0774 112.272 4 68 970 16.0125 112.215 T 75 965 16.2224 111.984 2 63 6 293
1987219N08155 1987 53 WP MM CARY 1987-08-21 00:00:00 TS 16.3000 111.860 70 965 tokyo main 309 272 OOOO______O___ jtwc_wp WP101987 16.4000 111.700 65 1 16.3000 112.000 5 70 965 2 100 50 2 300 200 0 16.2000 112.000 4 68 970 16.2000 111.900 T 75 965 16.4000 111.700 4 65 7 297
1987219N08155 1987 53 WP MM CARY 1987-08-21 03:00:00 TS 16.4726 111.540 main 265 228 PPPP______P___ WP101987 16.5699 111.415 67 1 16.4049 111.680 5 67 967 2 100 50 2 300 200 16.3475 111.622 4 68 970 16.4274 111.565 T 77 962 16.6134 111.416 4 66 8 302
1987219N08155 1987 53 WP MM CARY 1987-08-21 06:00:00 TS 16.7123 111.181 65 970 tokyo main 228 177 OOOO______P___ jtwc_wp WP101987 16.8000 111.100 70 1 16.6000 111.300 5 65 970 2 100 50 2 300 200 0 16.6000 111.200 4 68 970 16.7000 111.200 T 80 960 16.8614 111.104 4 67 9 308
1987219N08155 1987 53 WP MM CARY 1987-08-21 09:00:00 TS 17.0276 110.807 main 177 116 PPPP______P___ WP101987 17.0773 110.745 70 1 16.9273 110.895 5 65 970 2 75 50 2 450 225 17.0197 110.830 4 68 970 16.9849 110.822 T 80 960 17.1287 110.741 4 68 10 310
1987219N08155 1987 53 WP MM CARY 1987-08-21 12:00:00 TS 17.3800 110.360 65 970 tokyo main 116 56 OOOO______O___ jtwc_wp WP101987 17.4000 110.300 70 1 17.3000 110.400 5 65 970 9 50 50 4 600 250 0 17.5000 110.400 4 68 970 17.3000 110.400 T 80 960 17.4000 110.300 4 70 12 307
1987219N08155 1987 53 WP MM CARY 1987-08-21 15:00:00 TS 17.7397 109.813 main 56 24 PPPP______P___ WP101987 17.7725 109.738 67 1 17.6225 109.780 5 62 972 9 40 40 4 600 225 17.9599 109.845 4 68 970 17.6646 109.960 T 77 962 17.6791 109.743 4 68 13 301
1987219N08155 1987 53 WP MM CARY 1987-08-21 18:00:00 TS 18.0507 109.182 60 975 tokyo main 33 24 OOOO______P___ jtwc_wp WP101987 18.1000 109.100 65 1 17.9000 109.100 4 60 975 9 30 30 4 600 200 0 18.3000 109.200 4 68 970 18.0000 109.400 T 75 965 17.9534 109.111 4 67 14 292
1987219N08155 1987 53 WP MM CARY 1987-08-21 21:00:00 TS 18.2548 108.482 main 30 30 PPPP______P___ WP101987 18.2949 108.450 65 1 18.1225 108.427 4 60 975 9 30 30 4 500 175 18.4027 108.484 4 63 971 18.2531 108.600 T 75 965 18.2009 108.449 4 66 14 284
1987219N08155 1987 53 WP MM CARY 1987-08-22 00:00:00 TS 18.3800 107.800 60 975 tokyo main 95 95 OOOO______O___ jtwc_wp WP101987 18.4000 107.800 65 1 18.3000 107.800 4 60 975 9 30 30 3 400 150 0 18.4000 107.800 3 58 973 18.4000 107.800 T 75 965 18.4000 107.800 4 65 12 280
1987219N08155 1987 53 WP MM CARY 1987-08-22 03:00:00 TS 18.4545 107.242 main 95 61 PPPP______P___ WP101987 18.4574 107.177 65 1 18.4647 107.277 4 57 975 9 30 30 3 350 125 18.4270 107.285 3 53 974 18.4069 107.254 T 72 967 18.5166 107.215 4 63 10 278
1987219N08155 1987 53 WP MM CARY 1987-08-22 06:00:00 TS 18.5174 106.731 55 975 tokyo main 53 30 OOOO______P___ jtwc_wp WP101987 18.5000 106.600 65 1 18.6000 106.800 4 55 975 9 30 30 3 300 100 0 18.5000 106.800 3 48 975 18.4000 106.800 T 70 970 18.5868 106.654 4 62 10 280
1987219N08155 1987 53 WP MM CARY 1987-08-22 09:00:00 TS 18.6346 106.209 main 30 0 PPPP______P___ WP101987 18.5998 106.078 62 0 18.7072 106.322 4 52 977 9 3 250 87 18.7000 106.208 3 43 975 18.5272 106.323 T 70 970 18.6386 106.115 4 61 10 284
1987219N08155 1987 53 WP MM CARY 1987-08-22 12:00:00 TS 18.7600 105.680 50 980 tokyo main 0 0 OOOO______O___ jtwc_wp WP101987 18.7000 105.600 60 0 18.8000 105.800 4 50 980 0 3 200 75 0 18.9000 105.600 2 38 976 18.7000 105.800 T 70 970 18.7000 105.600 2 60 10 282
1987219N08155 1987 53 WP MM CARY 1987-08-22 15:00:00 TS 18.8497 105.137 main 0 0 PPPP______P___ WP101987 18.7348 105.150 55 0 18.8998 105.187 4 47 982 0 3 200 75 18.9423 105.034 2 38 978 18.8498 105.187 T 62 975 18.8217 105.128 2 55 11 280
1987219N08155 1987 53 WP MM CARY 1987-08-22 18:00:00 TS 18.9486 104.578 45 985 tokyo main 0 0 OOOO______P___ jtwc_wp WP101987 18.8000 104.700 50 0 19.0000 104.500 3 45 985 0 3 200 75 0 19.0000 104.500 2 38 980 19.0000 104.500 STS 55 980 18.9559 104.673 2 50 11 283
1987219N08155 1987 53 WP MM CARY 1987-08-22 21:00:00 TS 19.0941 103.983 main 0 0 PPPP______P___ WP101987 18.9998 104.223 45 0 19.0773 103.772 3 42 987 0 3 200 75 19.2028 103.993 2 33 985 19.1578 103.728 STS 45 987 19.0872 104.206 2 45 12 284
1987219N08155 1987 53 WP MM CARY 1987-08-23 00:00:00 TS 19.2375 103.381 40 990 tokyo main 0 0 OOOO______O___ jtwc_wp WP101987 19.2000 103.700 40 0 19.2000 103.000 3 40 990 0 3 200 75 0 19.5000 103.500 1 29 990 19.3000 103.000 TS 35 994 19.2000 103.700 2 40 12 281
1987219N08155 1987 53 WP MM CARY 1987-08-23 03:00:00 TS 19.3170 102.756 main 0 0 PP_P______P___ WP101987 19.2724 103.122 37 0 19.4049 102.192 3 992 0 3 1 19.4099 102.445 TS 32 995 19.2271 103.108 2 37 12 279
1987219N08155 1987 53 WP MM CARY 1987-08-23 06:00:00 TS 19.4201 102.116 994 tokyo main 0 0 OO_O______P___ jtwc_wp WP101987 19.3000 102.500 35 0 19.7000 101.400 2 994 0 0 0 19.5000 102.000 TD 30 996 19.2403 102.478 2 35 12 281
1987219N08155 1987 53 WP MM CARY 1987-08-23 09:00:00 TS 19.5501 101.458 main 0 0 PP________P___ WP101987 19.3049 101.849 32 -1 20.0620 100.692 2 995 0 0 TD 19.2833 101.833 2 32 12 283
1987219N08155 1987 53 WP MM CARY 1987-08-23 12:00:00 TS 19.7000 100.873 996 tokyo main 0 0 OO________O___ jtwc_wp WP101987 19.4000 101.200 30 -1 20.5000 100.000 2 996 0 0 0 19.4000 101.200 1 30 11 290
1987219N08155 1987 53 WP MM CARY 1987-08-23 15:00:00 TS 19.9375 100.327 main 0 0 PP________P___ WP101987 19.7123 100.585 27 -1 20.9883 99.2662 2 997 0 0 19.6373 100.599 1 28 11 297
1987219N08155 1987 53 NI BB CARY 1987-08-23 18:00:00 TS 20.1897 99.8392 main 0 0 OO________P___ jtwc_wp WP101987 20.1000 100.000 25 -1 21.5000 98.5000 2 998 0 0 0 19.9519 100.013 1 27 9 297
1987219N08155 1987 53 NI BB CARY 1987-08-23 21:00:00 NR 20.3615 99.4364 main 0 0 P_________P___ WP101987 20.4074 99.4273 25 -1 2 0 0 20.3156 99.4456 1 26 10 300
1987219N08155 1987 53 NI BB CARY 1987-08-24 00:00:00 NR 20.7000 98.9000 main 0 0 O_________O___ jtwc_wp WP101987 20.7000 98.9000 25 -1 20.7000 98.9000 1 25 12 305
1987219N08155 1987 53 NI BB CARY 1987-08-24 03:00:00 NR 21.0296 98.4140 main 0 0 P_________P___ WP101987 20.9771 98.4494 22 -1 21.0821 98.3786 1 23 11 307
1987219N08155 1987 53 NI BB CARY 1987-08-24 06:00:00 NR 21.3792 97.9381 main 0 0 O_________P___ jtwc_wp WP101987 21.3000 98.0000 20 -1 21.4584 97.8763 1 22 12 309
1987219N08155 1987 53 NI BB CARY 1987-08-24 09:00:00 NR 21.7756 97.4309 main 0 0 P_________P___ WP101987 21.7206 97.4761 20 -1 21.8306 97.3858 1 21 13 310
1987219N08155 1987 53 NI BB CARY 1987-08-24 12:00:00 NR 22.2000 96.9000 main 0 O_________O___ jtwc_wp WP101987 22.2000 96.9000 20 -1 22.2000 96.9000 1 20 13 311

デジタル台風データ・検索

IBTrACS Databaseについて

本データベースは、米国NOAAが公開する1842年以降の世界の熱帯低気圧のベストトラックデータアーカイブInternational Best Track Archive for Climate Stewardship (IBTrACS)を、ウェブで閲覧しやすい形式に変換したものです。

最終更新日:2021-10-19